Time;durP1;ratioP1;P1;durP2;ratioP2;P2;SDS_P1;SDS_P2;PMS_P1;PMS_P2;Temp;Humidity;BMP_temperature;BMP_pressure;BME280_temperature;BME280_humidity;BME280_pressure;Samples;Min_cycle;Max_cycle;Signal;HPM_P1;HPM_P2
2023/04/23 00:00:12;;;;;;;4.73;3.03;;;14.20;32.50;;;;;;5040829;28;46395;-70
2023/04/23 00:02:42;;;;;;;8.47;3.50;;;14.20;32.60;;;;;;5037507;28;46387;-70
2023/04/23 00:05:09;;;;;;;6.07;2.93;;;14.20;32.50;;;;;;5041763;28;46001;-69
2023/04/23 00:07:35;;;;;;;7.77;3.40;;;14.20;32.40;;;;;;5039625;28;46333;-70
2023/04/23 00:10:04;;;;;;;6.30;3.00;;;14.30;32.50;;;;;;5040841;28;45870;-70
2023/04/23 00:12:30;;;;;;;5.30;2.80;;;14.30;33.80;;;;;;5041001;28;46419;-72
2023/04/23 00:14:57;;;;;;;6.30;3.00;;;14.30;33.80;;;;;;5040414;28;46576;-72
2023/04/23 00:17:22;;;;;;;5.70;2.90;;;14.30;32.60;;;;;;5040920;28;46593;-71
2023/04/23 00:19:48;;;;;;;6.43;3.33;;;14.20;32.90;;;;;;5040114;28;46416;-71
2023/04/23 00:22:21;;;;;;;6.57;3.20;;;14.10;33.40;;;;;;5040591;28;46452;-74
2023/04/23 00:24:47;;;;;;;4.90;3.30;;;14.00;33.90;;;;;;5041429;28;46315;-73
2023/04/23 00:27:13;;;;;;;7.30;3.80;;;13.90;34.30;;;;;;5037820;28;47184;-73
2023/04/23 00:29:39;;;;;;;5.10;2.77;;;13.90;34.50;;;;;;5036409;28;46550;-74
2023/04/23 00:32:05;;;;;;;8.17;3.37;;;13.90;34.50;;;;;;5036366;28;46351;-74
2023/04/23 00:34:31;;;;;;;6.00;3.43;;;13.90;34.40;;;;;;5040646;28;45848;-74
2023/04/23 00:36:56;;;;;;;8.73;3.00;;;13.90;34.30;;;;;;5041443;28;46349;-73
2023/04/23 00:39:22;;;;;;;10.80;3.20;;;13.90;34.30;;;;;;5039018;28;46223;-73
2023/04/23 00:41:47;;;;;;;5.87;3.33;;;13.90;34.40;;;;;;5039802;28;45770;-73
2023/04/23 00:44:13;;;;;;;8.47;3.73;;;13.90;34.70;;;;;;5041150;28;46407;-74
2023/04/23 00:46:39;;;;;;;7.37;3.40;;;13.80;34.70;;;;;;5040551;28;46463;-74
2023/04/23 00:49:05;;;;;;;9.10;3.60;;;13.80;35.00;;;;;;5039061;28;46503;-73
2023/04/23 00:51:33;;;;;;;7.53;3.87;;;13.70;35.10;;;;;;5039724;28;46291;-73
2023/04/23 00:53:59;;;;;;;4.67;2.80;;;13.80;35.20;;;;;;5039948;28;46420;-74
2023/04/23 00:56:26;;;;;;;6.30;3.37;;;13.70;35.10;;;;;;5038119;28;46435;-73
2023/04/23 00:58:52;;;;;;;6.20;3.43;;;13.70;35.30;;;;;;5040048;28;46329;-73
2023/04/23 01:01:20;;;;;;;7.03;3.50;;;13.70;35.30;;;;;;5039097;28;46362;-73
2023/04/23 01:03:48;;;;;;;5.27;3.13;;;13.70;35.40;;;;;;5044035;28;46401;-73
2023/04/23 01:06:15;;;;;;;9.33;3.70;;;13.70;35.40;;;;;;5042806;28;46653;-73
2023/04/23 01:08:43;;;;;;;9.43;3.37;;;13.70;35.50;;;;;;5039491;28;46451;-74
2023/04/23 01:11:09;;;;;;;9.03;3.00;;;13.70;35.40;;;;;;5038160;28;46294;-73
2023/04/23 01:13:35;;;;;;;4.90;2.97;;;13.70;35.50;;;;;;5039656;28;46409;-73
2023/04/23 01:16:01;;;;;;;5.87;3.37;;;13.70;35.30;;;;;;5039454;28;46125;-73
2023/04/23 01:18:28;;;;;;;5.53;3.00;;;13.70;35.50;;;;;;5040423;28;46433;-73
2023/04/23 01:20:54;;;;;;;4.80;2.70;;;13.70;35.50;;;;;;5042150;28;46456;-72
2023/04/23 01:23:21;;;;;;;5.10;3.03;;;13.70;35.40;;;;;;5049315;28;45941;-73
2023/04/23 01:25:46;;;;;;;8.97;3.30;;;13.80;35.40;;;;;;5042199;28;46420;-73
2023/04/23 01:28:12;;;;;;;6.80;3.47;;;13.80;35.40;;;;;;5040301;28;46491;-73
2023/04/23 01:30:41;;;;;;;6.70;3.60;;;13.70;35.50;;;;;;5041849;28;46422;-72
2023/04/23 01:33:07;;;;;;;4.40;2.97;;;13.70;35.90;;;;;;5041422;28;46368;-73
2023/04/23 01:35:35;;;;;;;6.13;3.40;;;13.60;36.20;;;;;;5041149;28;46684;-74
2023/04/23 01:38:03;;;;;;;8.07;3.60;;;13.60;36.40;;;;;;5040097;28;46322;-73
2023/04/23 01:40:29;;;;;;;5.43;3.10;;;13.60;36.70;;;;;;5041530;28;45844;-74
2023/04/23 01:42:55;;;;;;;5.10;3.40;;;13.60;37.00;;;;;;5039149;28;45865;-74
2023/04/23 01:45:21;;;;;;;7.37;3.53;;;13.50;37.50;;;;;;5039522;28;46326;-73
2023/04/23 01:47:47;;;;;;;4.53;3.20;;;13.40;37.70;;;;;;5039451;28;46426;-73
2023/04/23 01:50:13;;;;;;;10.20;3.47;;;13.40;37.90;;;;;;5037449;28;46343;-73
2023/04/23 01:52:40;;;;;;;7.17;3.30;;;13.40;38.20;;;;;;5037970;28;46655;-73
2023/04/23 01:55:05;;;;;;;6.40;3.87;;;13.40;38.30;;;;;;5039026;28;46429;-72
2023/04/23 01:57:31;;;;;;;6.50;3.67;;;13.40;38.30;;;;;;5041638;28;45774;-73
2023/04/23 02:00:07;;;;;;;4.10;3.00;;;13.50;38.40;;;;;;5040529;28;46510;-74
2023/04/23 02:02:33;;;;;;;4.53;3.30;;;13.50;38.40;;;;;;5036784;28;46323;-74
2023/04/23 02:05:03;;;;;;;10.10;3.80;;;13.50;38.40;;;;;;5038485;28;46963;-74
2023/04/23 02:07:30;;;;;;;7.83;3.57;;;13.50;38.30;;;;;;5035889;28;46284;-75
2023/04/23 02:09:56;;;;;;;5.17;3.50;;;13.60;38.30;;;;;;5040235;28;46376;-74
2023/04/23 02:12:22;;;;;;;8.13;4.00;;;13.60;38.40;;;;;;5039294;28;46697;-74
2023/04/23 02:14:48;;;;;;;7.80;4.27;;;13.50;38.30;;;;;;5040949;28;46022;-74
2023/04/23 02:17:13;;;;;;;13.87;5.43;;;13.60;38.80;;;;;;5038982;28;46459;-74
2023/04/23 02:19:39;;;;;;;7.03;4.07;;;13.50;38.90;;;;;;5040358;28;46371;-74
2023/04/23 02:22:06;;;;;;;5.33;3.70;;;13.50;39.10;;;;;;5040953;28;46421;-75
2023/04/23 02:24:32;;;;;;;6.90;4.40;;;13.50;39.40;;;;;;5039642;28;47225;-73
2023/04/23 02:26:57;;;;;;;4.67;3.20;;;13.40;39.40;;;;;;5039363;28;45973;-74
2023/04/23 02:29:23;;;;;;;6.87;4.03;;;13.40;39.60;;;;;;5038337;28;46492;-73
2023/04/23 02:31:49;;;;;;;6.50;4.47;;;13.40;39.90;;;;;;5040910;28;46482;-74
2023/04/23 02:34:14;;;;;;;6.13;3.70;;;13.40;40.10;;;;;;5036808;28;47379;-73
2023/04/23 02:36:40;;;;;;;5.80;3.50;;;13.30;40.40;;;;;;5038371;28;46452;-74
2023/04/23 02:39:05;;;;;;;7.50;3.83;;;13.30;41.10;;;;;;5040652;28;45830;-73
2023/04/23 02:41:31;;;;;;;6.93;3.57;;;13.30;41.50;;;;;;5040027;28;45925;-72
2023/04/23 02:43:57;;;;;;;6.43;4.00;;;13.30;42.70;;;;;;5040930;28;47339;-73
2023/04/23 02:46:22;;;;;;;4.80;3.30;;;13.20;41.30;;;;;;5036941;28;46499;-73
2023/04/23 02:48:48;;;;;;;6.40;3.70;;;13.20;41.30;;;;;;5040243;28;46318;-73
2023/04/23 02:51:14;;;;;;;4.93;3.53;;;13.20;41.30;;;;;;5038630;28;46543;-74
2023/04/23 02:53:39;;;;;;;8.10;3.77;;;13.20;41.50;;;;;;5039369;28;46381;-73
2023/04/23 02:56:06;;;;;;;5.10;3.50;;;13.20;41.90;;;;;;5038964;28;46396;-74
2023/04/23 02:58:32;;;;;;;7.83;3.73;;;13.20;42.30;;;;;;5038507;28;46456;-73
2023/04/23 03:00:57;;;;;;;5.53;3.30;;;13.20;42.70;;;;;;5037828;28;46577;-74
2023/04/23 03:03:25;;;;;;;5.60;3.43;;;13.20;43.00;;;;;;5038096;28;46516;-74
2023/04/23 03:05:51;;;;;;;10.13;4.50;;;13.20;43.20;;;;;;5039844;28;46492;-73
2023/04/23 03:08:17;;;;;;;10.33;3.70;;;13.20;43.40;;;;;;5037928;28;46438;-74
2023/04/23 03:10:42;;;;;;;7.60;3.77;;;13.20;43.50;;;;;;5039395;28;46493;-74
2023/04/23 03:13:08;;;;;;;5.17;3.60;;;13.10;43.60;;;;;;5038109;28;46352;-72
2023/04/23 03:15:34;;;;;;;7.90;3.80;;;13.10;43.80;;;;;;5038963;28;46389;-74
2023/04/23 03:18:00;;;;;;;5.83;3.30;;;13.10;43.90;;;;;;5036761;28;46389;-73
2023/04/23 03:20:26;;;;;;;6.77;3.93;;;13.10;44.20;;;;;;5038648;28;46241;-73
2023/04/23 03:22:52;;;;;;;6.00;3.17;;;13.10;44.40;;;;;;5039237;28;46567;-74
2023/04/23 03:25:19;;;;;;;5.80;3.03;;;13.10;44.90;;;;;;5039857;28;46419;-74
2023/04/23 03:27:44;;;;;;;7.40;3.50;;;13.00;45.20;;;;;;5040883;28;45864;-74
2023/04/23 03:30:10;;;;;;;5.67;3.40;;;13.00;45.30;;;;;;5037558;28;46558;-75
2023/04/23 03:32:37;;;;;;;7.80;3.20;;;12.90;46.00;;;;;;5036848;28;46116;-74
2023/04/23 03:35:04;;;;;;;5.40;3.30;;;12.80;46.60;;;;;;5041855;28;46642;-74
2023/04/23 03:37:29;;;;;;;7.73;3.23;;;12.80;47.80;;;;;;5038132;28;46495;-73
2023/04/23 03:39:55;;;;;;;7.27;3.40;;;12.60;48.90;;;;;;5039556;28;46827;-73
2023/04/23 03:42:21;;;;;;;8.27;3.70;;;12.60;48.80;;;;;;5035080;28;47834;-74
2023/04/23 03:44:46;;;;;;;6.50;3.23;;;12.70;48.40;;;;;;5039563;28;46292;-74
2023/04/23 03:47:12;;;;;;;5.03;3.40;;;12.80;47.90;;;;;;5036946;28;46410;-72
2023/04/23 03:49:39;;;;;;;6.97;4.13;;;12.90;47.60;;;;;;5039096;28;45859;-74
2023/04/23 03:52:04;;;;;;;6.10;4.00;;;12.90;48.30;;;;;;5036817;28;47832;-74
2023/04/23 03:54:30;;;;;;;5.37;3.67;;;12.90;47.00;;;;;;5035935;28;46496;-74
2023/04/23 03:56:56;;;;;;;6.40;3.70;;;12.90;47.00;;;;;;5037259;28;46498;-74
2023/04/23 03:59:22;;;;;;;6.80;3.80;;;12.90;47.10;;;;;;5038199;28;46658;-74
2023/04/23 04:01:47;;;;;;;8.87;4.60;;;12.80;47.20;;;;;;5035247;28;46527;-74
2023/04/23 04:04:14;;;;;;;5.50;4.03;;;12.80;47.90;;;;;;5037645;28;46522;-74
2023/04/23 04:06:40;;;;;;;6.37;4.07;;;12.80;48.10;;;;;;5037792;28;46338;-74
2023/04/23 04:09:07;;;;;;;8.67;4.40;;;12.70;48.50;;;;;;5038793;28;46642;-74
2023/04/23 04:11:33;;;;;;;10.40;5.17;;;12.70;48.70;;;;;;5038259;28;47017;-73
2023/04/23 04:13:58;;;;;;;9.03;4.87;;;12.70;48.60;;;;;;5038403;28;45806;-74
2023/04/23 04:16:24;;;;;;;6.77;5.10;;;12.70;48.70;;;;;;5039251;28;45711;-74
2023/04/23 04:18:50;;;;;;;7.63;4.20;;;12.70;48.80;;;;;;5037100;28;46500;-74
2023/04/23 04:21:17;;;;;;;11.90;5.37;;;12.70;49.00;;;;;;5035399;28;46022;-74
2023/04/23 04:23:44;;;;;;;10.10;5.00;;;12.60;49.90;;;;;;5037062;28;46341;-73
2023/04/23 04:26:10;;;;;;;6.90;4.43;;;12.50;50.10;;;;;;5038381;28;46356;-74
2023/04/23 04:28:36;;;;;;;9.07;4.70;;;12.50;52.10;;;;;;5038852;28;45949;-74
2023/04/23 04:31:04;;;;;;;12.33;4.97;;;12.40;51.60;;;;;;5041338;28;46639;-73
2023/04/23 04:33:30;;;;;;;11.13;5.17;;;12.30;51.90;;;;;;5040540;28;46420;-74
2023/04/23 04:35:56;;;;;;;8.33;5.17;;;12.30;52.50;;;;;;5042394;28;46364;-74
2023/04/23 04:38:22;;;;;;;10.57;6.20;;;12.40;52.70;;;;;;5040836;28;46444;-73
2023/04/23 04:40:47;;;;;;;9.33;5.20;;;12.40;52.80;;;;;;5040601;28;46518;-73
2023/04/23 04:43:15;;;;;;;15.00;5.67;;;12.30;53.80;;;;;;5039517;28;45832;-74
2023/04/23 04:45:41;;;;;;;11.00;5.90;;;12.20;55.50;;;;;;5041356;28;46141;-74
2023/04/23 04:48:07;;;;;;;12.63;5.50;;;12.20;56.50;;;;;;5039994;28;45987;-73
2023/04/23 04:50:33;;;;;;;8.63;5.50;;;12.10;57.50;;;;;;5040217;28;46957;-74
2023/04/23 04:52:59;;;;;;;9.03;5.43;;;12.00;60.70;;;;;;5041544;28;46425;-74
2023/04/23 04:55:26;;;;;;;8.73;5.57;;;11.90;63.40;;;;;;5041774;28;46421;-73
2023/04/23 04:57:52;;;;;;;8.20;4.93;;;11.90;65.20;;;;;;5039870;28;46426;-74
2023/04/23 05:00:26;;;;;;;11.70;5.40;;;11.80;66.10;;;;;;5040093;28;46681;-73
2023/04/23 05:02:52;;;;;;;10.40;5.23;;;11.70;67.50;;;;;;5033191;28;45775;-74
2023/04/23 05:05:19;;;;;;;8.13;5.10;;;11.70;69.20;;;;;;5041059;28;46429;-73
2023/04/23 05:07:45;;;;;;;8.50;5.80;;;11.70;70.00;;;;;;5042536;28;46619;-73
2023/04/23 05:10:12;;;;;;;9.10;5.60;;;11.70;70.40;;;;;;5041252;28;46319;-73
2023/04/23 05:12:40;;;;;;;16.07;6.13;;;11.80;70.60;;;;;;5039131;28;45884;-74
2023/04/23 05:15:12;;;;;;;10.73;5.97;;;11.80;71.20;;;;;;5040474;28;45859;-73
2023/04/23 05:17:41;;;;;;;10.47;5.77;;;11.70;71.70;;;;;;5040644;28;46298;-74
2023/04/23 05:20:09;;;;;;;11.07;5.87;;;11.80;71.50;;;;;;5041805;28;47331;-73
2023/04/23 05:22:36;;;;;;;15.37;6.40;;;11.80;71.00;;;;;;5040512;28;45849;-73
2023/04/23 05:25:03;;;;;;;10.87;6.23;;;12.00;70.00;;;;;;5041395;28;46432;-73
2023/04/23 05:27:29;;;;;;;10.53;6.80;;;12.20;69.00;;;;;;5040508;28;46396;-73
2023/04/23 05:29:55;;;;;;;9.20;6.80;;;12.30;68.40;;;;;;5037454;28;47106;-74
2023/04/23 05:32:20;;;;;;;12.93;6.70;;;12.40;67.60;;;;;;5039509;28;46439;-74
2023/04/23 05:34:46;;;;;;;10.03;7.00;;;12.40;67.00;;;;;;5040452;28;46330;-74
2023/04/23 05:37:11;;;;;;;11.20;6.90;;;12.50;66.70;;;;;;5039265;28;46440;-74
2023/04/23 05:39:37;;;;;;;15.60;7.10;;;12.60;66.90;;;;;;5039210;28;46416;-74
2023/04/23 05:42:03;;;;;;;10.20;7.20;;;12.70;66.80;;;;;;5044785;28;46455;-73
2023/04/23 05:44:29;;;;;;;9.13;6.47;;;12.80;66.00;;;;;;5049060;28;45821;-73
2023/04/23 05:46:55;;;;;;;11.70;6.80;;;12.80;65.80;;;;;;5039946;28;45970;-74
2023/04/23 05:49:20;;;;;;;10.90;6.07;;;12.80;65.70;;;;;;5040855;28;47140;-74
2023/04/23 05:51:46;;;;;;;8.90;6.10;;;12.80;65.80;;;;;;5037390;28;46312;-74
2023/04/23 05:54:11;;;;;;;11.33;6.57;;;12.80;65.70;;;;;;5041187;28;46411;-74
2023/04/23 05:56:37;;;;;;;17.70;6.43;;;12.80;66.00;;;;;;5038222;28;46385;-74
2023/04/23 05:59:02;;;;;;;15.33;7.03;;;12.80;66.00;;;;;;5040918;28;47274;-73
2023/04/23 06:01:28;;;;;;;9.87;6.20;;;12.80;65.80;;;;;;5036750;28;46349;-73
2023/04/23 06:03:54;;;;;;;9.00;6.20;;;12.80;65.60;;;;;;5040476;28;46412;-72
2023/04/23 06:06:19;;;;;;;16.40;7.00;;;12.90;65.30;;;;;;5038052;28;46566;-73
2023/04/23 06:08:45;;;;;;;8.53;6.40;;;13.00;66.30;;;;;;5040820;28;46431;-72
2023/04/23 06:11:10;;;;;;;9.07;6.03;;;13.10;64.80;;;;;;5039652;28;46478;-72
2023/04/23 06:13:39;;;;;;;9.47;6.07;;;13.10;64.40;;;;;;5038426;28;46583;-72
2023/04/23 06:16:07;;;;;;;11.40;6.57;;;13.20;64.20;;;;;;5040136;28;46622;-72
2023/04/23 06:18:32;;;;;;;10.17;6.73;;;13.10;64.30;;;;;;5038657;28;46996;-73
2023/04/23 06:21:03;;;;;;;7.80;6.23;;;13.10;64.70;;;;;;5038377;28;46659;-72
2023/04/23 06:23:32;;;;;;;13.17;7.00;;;13.10;64.70;;;;;;5039185;28;46387;-72
2023/04/23 06:25:57;;;;;;;11.73;6.07;;;13.00;66.10;;;;;;5035962;28;46481;-71
2023/04/23 06:28:23;;;;;;;10.87;6.40;;;12.90;65.40;;;;;;5039696;28;46369;-73
2023/04/23 06:30:49;;;;;;;9.87;6.27;;;12.80;66.10;;;;;;5040064;28;46404;-73
2023/04/23 06:33:14;;;;;;;10.60;6.47;;;12.80;66.50;;;;;;5038422;28;46401;-73
2023/04/23 06:35:40;;;;;;;9.50;6.80;;;12.80;66.40;;;;;;5039755;28;46372;-73
2023/04/23 06:38:06;;;;;;;10.33;6.83;;;12.90;66.50;;;;;;5041159;28;46349;-73
2023/04/23 06:40:32;;;;;;;10.80;5.53;;;12.90;66.90;;;;;;5045441;28;45854;-72
2023/04/23 06:42:58;;;;;;;14.83;6.73;;;12.90;67.10;;;;;;5040691;28;46580;-71
2023/04/23 06:45:24;;;;;;;8.17;6.00;;;12.90;67.10;;;;;;5037083;28;46656;-72
2023/04/23 06:47:49;;;;;;;13.37;7.90;;;13.00;66.80;;;;;;5039445;28;46305;-71
2023/04/23 06:50:16;;;;;;;10.73;6.70;;;13.10;66.30;;;;;;5040047;28;46390;-71
2023/04/23 06:52:42;;;;;;;10.90;6.53;;;13.20;65.80;;;;;;5038401;28;46401;-72
2023/04/23 06:55:08;;;;;;;11.37;7.00;;;13.30;65.30;;;;;;5046383;28;46378;-71
2023/04/23 06:57:33;;;;;;;8.90;5.60;;;13.40;65.10;;;;;;5037921;28;46482;-72
2023/04/23 06:59:59;;;;;;;10.63;6.47;;;13.40;65.00;;;;;;5038028;28;46422;-73
2023/04/23 07:02:25;;;;;;;14.03;7.30;;;13.40;64.80;;;;;;5038021;28;45843;-73
2023/04/23 07:04:50;;;;;;;11.20;6.60;;;13.40;64.60;;;;;;5039707;28;45899;-73
2023/04/23 07:07:16;;;;;;;9.03;6.47;;;13.40;64.70;;;;;;5037428;28;48010;-73
2023/04/23 07:09:42;;;;;;;9.33;6.53;;;13.40;64.80;;;;;;5038394;28;46449;-73
2023/04/23 07:12:08;;;;;;;12.33;6.37;;;13.40;64.90;;;;;;5037452;28;46358;-73
2023/04/23 07:14:34;;;;;;;11.07;6.90;;;13.50;64.60;;;;;;5039982;28;46333;-73
2023/04/23 07:16:59;;;;;;;14.17;6.93;;;13.60;64.40;;;;;;5035148;28;46987;-74
2023/04/23 07:19:26;;;;;;;12.03;7.40;;;13.60;64.20;;;;;;5039450;28;46297;-73
2023/04/23 07:21:52;;;;;;;8.47;6.23;;;13.70;64.10;;;;;;5039382;28;45985;-73
2023/04/23 07:24:17;;;;;;;14.77;7.80;;;13.70;63.60;;;;;;5040393;28;46463;-73
2023/04/23 07:26:44;;;;;;;12.40;7.40;;;13.90;63.10;;;;;;5035556;28;49284;-73
2023/04/23 07:29:10;;;;;;;9.50;8.43;;;13.90;63.00;;;;;;5037750;28;46415;-73
2023/04/23 07:31:38;;;;;;;9.83;6.80;;;13.90;62.90;;;;;;5035012;28;46352;-73
2023/04/23 07:34:03;;;;;;;9.23;5.97;;;13.80;63.10;;;;;;5039854;28;46582;-73
2023/04/23 07:36:30;;;;;;;9.50;6.80;;;13.80;63.00;;;;;;5032989;28;47084;-72
2023/04/23 07:38:56;;;;;;;10.70;6.07;;;13.80;63.10;;;;;;5037679;28;46425;-74
2023/04/23 07:41:21;;;;;;;10.50;7.20;;;13.80;63.10;;;;;;5035998;28;46603;-73
2023/04/23 07:43:47;;;;;;;10.80;6.60;;;13.90;62.90;;;;;;5037911;28;46516;-72
2023/04/23 07:46:13;;;;;;;9.13;6.20;;;14.00;62.70;;;;;;5038735;28;47223;-73
2023/04/23 07:48:39;;;;;;;11.63;5.70;;;14.10;62.40;;;;;;5035342;28;46479;-72
2023/04/23 07:51:05;;;;;;;7.93;5.67;;;14.20;62.30;;;;;;5035969;28;46775;-73
2023/04/23 07:53:31;;;;;;;9.03;6.33;;;14.40;62.10;;;;;;5037059;28;45831;-72
2023/04/23 07:55:57;;;;;;;9.87;6.53;;;14.70;61.60;;;;;;5038095;28;47129;-72
2023/04/23 07:58:23;;;;;;;22.60;14.17;;;14.90;60.80;;;;;;5036123;28;46661;-72
2023/04/23 08:00:49;;;;;;;19.80;12.93;;;15.10;60.50;;;;;;5036424;28;46358;-71
2023/04/23 08:03:15;;;;;;;40.13;26.17;;;15.20;60.30;;;;;;5039303;28;46836;-71
2023/04/23 08:05:40;;;;;;;26.27;15.70;;;15.20;60.20;;;;;;5041975;28;46294;-72
2023/04/23 08:08:07;;;;;;;21.83;14.70;;;15.40;60.10;;;;;;5041871;28;46449;-72
2023/04/23 08:10:34;;;;;;;15.87;11.13;;;15.60;59.60;;;;;;5041012;28;46483;-72
2023/04/23 08:13:00;;;;;;;14.27;9.20;;;15.90;58.80;;;;;;5041641;28;46509;-73
2023/04/23 08:15:26;;;;;;;15.37;10.80;;;16.10;57.70;;;;;;5040020;28;46445;-73
2023/04/23 08:17:52;;;;;;;26.27;15.40;;;16.30;57.40;;;;;;5041261;28;46420;-73
2023/04/23 08:20:18;;;;;;;12.33;7.37;;;16.30;57.40;;;;;;5040600;28;46564;-73
2023/04/23 08:22:43;;;;;;;6.57;4.67;;;16.30;57.50;;;;;;5038970;28;46515;-73
2023/04/23 08:25:11;;;;;;;6.80;4.27;;;16.40;57.50;;;;;;5042459;28;47554;-73
2023/04/23 08:27:37;;;;;;;9.97;6.63;;;16.40;56.80;;;;;;5040642;28;45791;-72
2023/04/23 08:30:03;;;;;;;14.50;7.87;;;16.50;56.40;;;;;;5040999;28;46368;-73
2023/04/23 08:32:29;;;;;;;7.70;5.00;;;16.60;56.10;;;;;;5041918;28;46582;-71
2023/04/23 08:34:55;;;;;;;41.57;22.27;;;16.70;55.60;;;;;;5042290;28;46397;-71
2023/04/23 08:37:20;;;;;;;35.03;19.30;;;16.80;55.10;;;;;;5041758;28;46427;-72
2023/04/23 08:39:46;;;;;;;12.13;7.87;;;17.00;54.60;;;;;;5039726;28;46462;-72
2023/04/23 08:42:25;;;;;;;8.90;4.43;;;17.30;54.00;;;;;;5041180;28;46492;-72
2023/04/23 08:44:52;;;;;;;6.40;3.93;;;17.70;53.30;;;;;;5037726;28;46565;-73
2023/04/23 08:47:20;;;;;;;30.03;13.17;;;18.10;52.30;;;;;;5037073;28;46428;-73
2023/04/23 08:49:47;;;;;;;21.93;12.10;;;18.10;50.60;;;;;;5037947;28;46456;-72
2023/04/23 08:52:21;;;;;;;35.23;18.10;;;17.90;50.10;;;;;;5041304;28;46480;-68
2023/04/23 08:54:51;;;;;;;26.03;14.43;;;17.70;50.60;;;;;;5038528;28;46482;-71
2023/04/23 08:57:16;;;;;;;10.93;5.37;;;17.50;51.10;;;;;;5038691;28;46369;-72
2023/04/23 08:59:43;;;;;;;6.23;3.67;;;17.60;51.60;;;;;;5035351;28;46822;-71
2023/04/23 09:02:09;;;;;;;6.60;3.37;;;17.70;51.00;;;;;;5039949;28;46374;-72
2023/04/23 09:04:36;;;;;;;5.00;3.37;;;17.80;50.20;;;;;;5033451;28;46393;-71
2023/04/23 09:07:03;;;;;;;4.30;2.90;;;18.10;50.40;;;;;;5038978;28;46469;-71
2023/04/23 09:09:29;;;;;;;4.80;2.93;;;18.50;49.30;;;;;;5037713;28;46314;-71
2023/04/23 09:11:56;;;;;;;6.03;3.40;;;18.80;48.10;;;;;;5051182;28;46439;-72
2023/04/23 09:14:25;;;;;;;4.80;3.13;;;19.20;47.00;;;;;;5038922;28;46416;-70
2023/04/23 09:16:50;;;;;;;6.10;4.20;;;19.30;46.60;;;;;;5036275;28;46445;-72
2023/04/23 09:19:17;;;;;;;5.17;3.20;;;19.20;45.90;;;;;;5040676;28;46455;-69
2023/04/23 09:21:46;;;;;;;6.27;3.80;;;19.20;45.20;;;;;;5039196;28;46495;-70
2023/04/23 09:24:13;;;;;;;6.63;3.60;;;19.10;45.40;;;;;;5040471;28;46222;-71
2023/04/23 09:26:47;;;;;;;4.33;3.10;;;19.40;45.00;;;;;;5036527;28;46920;-71
2023/04/23 09:29:18;;;;;;;5.10;3.20;;;19.70;43.20;;;;;;5038672;28;46473;-72
2023/04/23 09:31:48;;;;;;;4.73;2.70;;;19.60;42.90;;;;;;5038310;28;46305;-71
2023/04/23 09:34:18;;;;;;;4.80;2.70;;;19.90;41.70;;;;;;5038305;28;46409;-73
2023/04/23 09:36:44;;;;;;;4.53;2.80;;;19.80;41.50;;;;;;5037510;28;46725;-72
2023/04/23 09:39:14;;;;;;;5.07;3.80;;;20.10;41.10;;;;;;5035262;28;46775;-71
2023/04/23 09:41:40;;;;;;;5.00;3.70;;;20.60;40.00;;;;;;5037216;28;46488;-71
2023/04/23 09:44:11;;;;;;;6.80;3.20;;;20.90;38.80;;;;;;5040349;28;46595;-72
2023/04/23 09:46:41;;;;;;;6.30;4.43;;;21.20;38.40;;;;;;5036592;28;46427;-72
2023/04/23 09:49:09;;;;;;;8.50;5.73;;;21.70;37.30;;;;;;5038772;28;46542;-72
2023/04/23 09:51:42;;;;;;;7.77;3.10;;;21.80;36.80;;;;;;5036661;28;45941;-72
2023/04/23 09:54:22;;;;;;;10.33;5.30;;;21.90;35.80;;;;;;5037950;28;46475;-72
2023/04/23 09:56:55;;;;;;;7.80;3.10;;;21.90;35.80;;;;;;5037640;28;46427;-71
2023/04/23 09:59:29;;;;;;;5.17;2.57;;;22.00;35.40;;;;;;5037530;28;46557;-72
2023/04/23 10:01:55;;;;;;;5.10;2.53;;;21.90;34.30;;;;;;5038367;28;46390;-72
2023/04/23 10:04:24;;;;;;;5.97;2.70;;;21.80;34.80;;;;;;5038641;28;47200;-72
2023/04/23 10:07:02;;;;;;;4.10;1.93;;;21.70;33.90;;;;;;5037865;28;46460;-72
2023/04/23 10:09:28;;;;;;;6.17;3.10;;;21.40;33.70;;;;;;5038214;28;46423;-72
2023/04/23 10:12:01;;;;;;;7.90;2.60;;;21.50;33.70;;;;;;5036381;28;46533;-72
2023/04/23 10:14:27;;;;;;;4.63;2.27;;;21.50;33.40;;;;;;5038238;28;46417;-71
2023/04/23 10:17:01;;;;;;;4.40;2.30;;;21.50;32.30;;;;;;5038225;28;46420;-72
2023/04/23 10:19:28;;;;;;;4.47;2.40;;;21.60;31.90;;;;;;5039041;28;46169;-72
2023/04/23 10:21:56;;;;;;;9.40;3.20;;;21.50;30.50;;;;;;5037822;28;46389;-72
2023/04/23 10:24:28;;;;;;;5.27;2.60;;;21.40;30.70;;;;;;5037372;28;46439;-71
2023/04/23 10:26:57;;;;;;;4.60;2.60;;;21.50;29.50;;;;;;5034005;28;46514;-72
2023/04/23 10:29:28;;;;;;;5.50;2.40;;;21.60;29.80;;;;;;5033717;28;46380;-72
2023/04/23 10:31:55;;;;;;;6.00;2.20;;;21.60;28.50;;;;;;5032432;28;46417;-72
2023/04/23 10:34:22;;;;;;;2.77;1.40;;;21.80;29.00;;;;;;5037012;28;47489;-71
2023/04/23 10:36:48;;;;;;;3.53;2.10;;;22.00;28.10;;;;;;5037963;28;46361;-71
2023/04/23 10:39:15;;;;;;;8.60;2.40;;;22.20;27.50;;;;;;5037447;28;46463;-71
2023/04/23 10:41:42;;;;;;;3.80;1.63;;;22.30;27.40;;;;;;5032914;28;46455;-71
2023/04/23 10:44:12;;;;;;;3.50;1.80;;;22.00;27.50;;;;;;5034016;28;46426;-72
2023/04/23 10:46:38;;;;;;;4.97;1.70;;;21.80;27.80;;;;;;5035419;28;46485;-73
2023/04/23 10:49:13;;;;;;;2.63;1.50;;;21.80;28.20;;;;;;5037564;28;46807;-72
2023/04/23 10:51:42;;;;;;;3.73;1.53;;;22.00;27.50;;;;;;5036818;28;46584;-74
2023/04/23 10:54:10;;;;;;;2.50;1.50;;;21.90;27.20;;;;;;5036530;28;46633;-72
2023/04/23 10:56:39;;;;;;;2.80;1.50;;;21.60;27.40;;;;;;5034893;28;46364;-71
2023/04/23 10:59:07;;;;;;;2.90;1.33;;;21.50;27.70;;;;;;5037137;28;46738;-71
2023/04/23 11:01:33;;;;;;;2.70;1.27;;;21.50;27.30;;;;;;5037032;28;45905;-72
2023/04/23 11:04:19;;;;;;;4.30;1.37;;;21.50;27.20;;;;;;5037463;28;47155;-74
2023/04/23 11:06:48;;;;;;;3.70;1.60;;;21.30;27.60;;;;;;5036581;28;46403;-72
2023/04/23 11:09:31;;;;;;;2.70;1.50;;;21.60;27.40;;;;;;5034513;28;46782;-72
2023/04/23 11:11:58;;;;;;;4.57;1.63;;;22.20;26.40;;;;;;5034659;28;46013;-71
2023/04/23 11:14:42;;;;;;;2.63;1.40;;;22.30;26.30;;;;;;5036391;28;46674;-71
2023/04/23 11:17:11;;;;;;;4.43;1.97;;;22.50;25.30;;;;;;5033268;28;46345;-72
2023/04/23 11:19:39;;;;;;;4.07;1.80;;;22.40;24.10;;;;;;5036887;28;45883;-72
2023/04/23 11:22:07;;;;;;;4.37;1.77;;;22.20;24.60;;;;;;5037605;28;46429;-70
2023/04/23 11:24:37;;;;;;;3.80;1.63;;;22.00;24.50;;;;;;5036633;28;46278;-71
2023/04/23 11:27:17;;;;;;;3.87;1.87;;;21.90;24.60;;;;;;5037528;28;46376;-71
2023/04/23 11:29:44;;;;;;;3.20;1.47;;;21.90;24.40;;;;;;5034993;28;46126;-70
2023/04/23 11:32:12;;;;;;;3.30;1.80;;;21.80;24.80;;;;;;5034849;28;46573;-70
2023/04/23 11:34:42;;;;;;;4.37;1.77;;;21.90;24.80;;;;;;5034590;28;46981;-72
2023/04/23 11:37:13;;;;;;;3.00;1.33;;;21.80;24.90;;;;;;5032990;28;46120;-71
2023/04/23 11:39:40;;;;;;;3.20;1.80;;;21.90;24.80;;;;;;5041022;28;46247;-68
2023/04/23 11:42:13;;;;;;;6.73;1.57;;;21.90;24.00;;;;;;5040465;28;46618;-72
2023/04/23 11:44:40;;;;;;;2.90;1.50;;;21.90;23.80;;;;;;5039237;28;46495;-70
2023/04/23 11:47:11;;;;;;;4.07;1.60;;;22.10;23.90;;;;;;5039496;28;46432;-70
2023/04/23 11:49:41;;;;;;;3.57;1.60;;;21.90;23.80;;;;;;5040857;28;46392;-71
2023/04/23 11:52:08;;;;;;;3.00;1.70;;;21.80;23.70;;;;;;5037773;28;46434;-72
2023/04/23 11:54:34;;;;;;;2.50;1.40;;;21.70;23.60;;;;;;5039604;28;46636;-71
2023/04/23 11:57:01;;;;;;;3.07;1.50;;;21.80;23.70;;;;;;5036886;28;46486;-72
2023/04/23 11:59:28;;;;;;;7.00;1.50;;;22.00;23.80;;;;;;5038715;28;46539;-72
2023/04/23 12:01:58;;;;;;;3.93;1.67;;;22.10;23.30;;;;;;5038719;28;46456;-70
2023/04/23 12:04:26;;;;;;;3.13;1.40;;;22.10;23.10;;;;;;5039157;28;47004;-70
2023/04/23 12:06:54;;;;;;;3.10;1.53;;;22.20;23.00;;;;;;5038743;28;46499;-70
2023/04/23 12:09:22;;;;;;;2.93;1.40;;;22.00;22.90;;;;;;5039614;28;46515;-72
2023/04/23 12:11:51;;;;;;;2.80;1.50;;;21.90;23.10;;;;;;5040673;28;46571;-71
2023/04/23 12:14:20;;;;;;;2.60;1.50;;;21.80;23.20;;;;;;5040567;28;47161;-70
2023/04/23 12:16:51;;;;;;;4.10;1.53;;;21.60;22.90;;;;;;5040585;28;46426;-71
2023/04/23 12:19:19;;;;;;;4.90;1.60;;;21.60;22.40;;;;;;5041057;28;46828;-71
2023/04/23 12:21:49;;;;;;;3.90;1.60;;;21.60;22.50;;;;;;5040731;28;45875;-72
2023/04/23 12:24:15;;;;;;;4.40;1.63;;;21.50;22.60;;;;;;5039966;28;46552;-72
2023/04/23 12:26:42;;;;;;;5.30;1.83;;;21.60;22.60;;;;;;5039711;28;46663;-73
2023/04/23 12:29:08;;;;;;;3.00;1.70;;;21.50;22.70;;;;;;5040606;28;46494;-72
2023/04/23 12:31:36;;;;;;;3.73;1.60;;;21.80;22.60;;;;;;5038484;28;46630;-70
2023/04/23 12:34:09;;;;;;;3.63;1.63;;;21.90;22.50;;;;;;5041010;28;46440;-72
2023/04/23 12:36:36;;;;;;;5.43;1.50;;;21.80;22.10;;;;;;5040165;28;46348;-72
2023/04/23 12:39:37;;;;;;;3.40;2.00;;;21.50;22.80;;;;;;5038070;28;46637;-71
2023/04/23 12:42:05;;;;;;;3.47;1.70;;;21.40;22.90;;;;;;4994859;28;46659;-73